Time;durP1;ratioP1;P1;durP2;ratioP2;P2;SDS_P1;SDS_P2;PMS_P1;PMS_P2;Temp;Humidity;BMP_temperature;BMP_pressure;BME280_temperature;BME280_humidity;BME280_pressure;Samples;Min_cycle;Max_cycle;Signal;HPM_P1;HPM_P2
2023/09/22 00:00:25;;;;;;;3.55;1.80;;;13.90;99.90;;;;;;5068749;28;20052;-73
2023/09/22 00:02:50;;;;;;;3.35;1.95;;;14.20;99.90;;;;;;5068494;28;20105;-74
2023/09/22 00:05:16;;;;;;;3.97;1.95;;;13.90;99.90;;;;;;5068363;28;20055;-75
2023/09/22 00:07:43;;;;;;;3.20;1.90;;;13.90;99.90;;;;;;5070048;28;20040;-74
2023/09/22 00:10:08;;;;;;;2.88;1.90;;;13.90;99.90;;;;;;5070086;28;20057;-74
2023/09/22 00:12:34;;;;;;;5.20;2.63;;;14.10;99.90;;;;;;5070014;28;20044;-75
2023/09/22 00:15:01;;;;;;;3.78;2.47;;;14.20;99.90;;;;;;5068684;28;20082;-74
2023/09/22 00:17:29;;;;;;;5.13;2.35;;;13.90;99.90;;;;;;5069557;28;20126;-74
2023/09/22 00:19:55;;;;;;;3.95;2.70;;;14.00;99.90;;;;;;5069898;28;20407;-72
2023/09/22 00:22:20;;;;;;;5.03;3.00;;;13.90;99.90;;;;;;5069725;28;20037;-74
2023/09/22 00:24:46;;;;;;;6.18;3.03;;;13.90;99.90;;;;;;5068096;28;20045;-74
2023/09/22 00:27:15;;;;;;;7.50;4.00;;;13.90;99.90;;;;;;5069256;28;20040;-75
2023/09/22 00:29:41;;;;;;;6.75;4.35;;;14.00;99.90;;;;;;5069645;28;20601;-74
2023/09/22 00:32:07;;;;;;;5.68;3.95;;;14.30;99.90;;;;;;5069576;28;20136;-73
2023/09/22 00:34:33;;;;;;;8.25;4.20;;;14.50;99.90;;;;;;5069836;28;20036;-72
2023/09/22 00:36:59;;;;;;;7.03;4.97;;;13.90;99.90;;;;;;5069547;28;20415;-74
2023/09/22 00:39:25;;;;;;;10.93;5.93;;;14.00;99.90;;;;;;5069493;28;20044;-74
2023/09/22 00:41:54;;;;;;;12.60;5.70;;;14.20;99.90;;;;;;5069001;28;20036;-73
2023/09/22 00:44:19;;;;;;;8.13;5.97;;;14.00;99.90;;;;;;5068182;28;20063;-74
2023/09/22 00:46:45;;;;;;;10.45;6.90;;;14.20;99.90;;;;;;5069443;28;20036;-73
2023/09/22 00:49:12;;;;;;;7.90;5.90;;;14.00;99.90;;;;;;5067947;28;20057;-73
2023/09/22 00:51:39;;;;;;;9.57;7.45;;;14.60;99.90;;;;;;5069447;28;20040;-74
2023/09/22 00:54:05;;;;;;;11.43;8.90;;;14.10;99.90;;;;;;5069391;28;20048;-73
2023/09/22 00:56:31;;;;;;;10.73;8.10;;;14.00;99.90;;;;;;5068994;28;20115;-72
2023/09/22 00:58:57;;;;;;;14.70;9.40;;;14.00;99.90;;;;;;5069490;28;20123;-74
2023/09/22 01:01:24;;;;;;;13.10;9.07;;;14.10;99.90;;;;;;5069637;28;20122;-74
2023/09/22 01:03:51;;;;;;;11.70;9.30;;;14.00;99.90;;;;;;5069015;28;20059;-73
2023/09/22 01:06:17;;;;;;;14.43;10.95;;;14.00;99.90;;;;;;5070026;28;20045;-73
2023/09/22 01:08:43;;;;;;;18.25;9.40;;;14.10;99.90;;;;;;5069678;28;20055;-73
2023/09/22 01:11:09;;;;;;;16.05;10.13;;;14.00;99.90;;;;;;5069274;28;20052;-73
2023/09/22 01:13:34;;;;;;;14.10;10.57;;;14.00;99.90;;;;;;5069138;28;20115;-73
2023/09/22 01:16:00;;;;;;;13.77;10.70;;;14.20;99.90;;;;;;5069070;28;20040;-73
2023/09/22 01:18:26;;;;;;;15.32;10.63;;;14.00;99.90;;;;;;5069220;28;20045;-73
2023/09/22 01:20:54;;;;;;;16.08;11.50;;;14.00;99.90;;;;;;5068118;28;20051;-71
2023/09/22 01:23:20;;;;;;;14.98;10.98;;;14.00;99.90;;;;;;5069056;28;20491;-73
2023/09/22 01:25:46;;;;;;;16.77;11.23;;;14.00;99.90;;;;;;5068725;28;20043;-74
2023/09/22 01:28:12;;;;;;;15.10;10.68;;;14.10;99.90;;;;;;5068803;28;20052;-73
2023/09/22 01:30:42;;;;;;;15.00;10.80;;;14.00;99.90;;;;;;5069268;28;20040;-73
2023/09/22 01:33:08;;;;;;;17.75;11.18;;;14.00;99.90;;;;;;5069112;28;20436;-74
2023/09/22 01:35:35;;;;;;;14.55;11.18;;;13.80;99.90;;;;;;5059202;28;20123;-72
2023/09/22 01:38:16;;;;;;;21.92;13.13;;;14.00;99.90;;;;;;5069329;28;20029;-73
2023/09/22 01:40:42;;;;;;;17.45;11.55;;;14.00;99.90;;;;;;5069955;28;20051;-72
2023/09/22 01:43:08;;;;;;;17.17;13.15;;;14.00;99.90;;;;;;5070582;28;20060;-73
2023/09/22 01:45:34;;;;;;;16.33;12.77;;;14.00;99.90;;;;;;5072634;28;20091;-73
2023/09/22 01:47:59;;;;;;;20.33;13.93;;;14.20;99.90;;;;;;5072339;28;20068;-74
2023/09/22 01:50:25;;;;;;;17.80;13.52;;;14.60;99.90;;;;;;5071226;28;20048;-75
2023/09/22 01:52:52;;;;;;;21.83;14.93;;;14.10;99.90;;;;;;5063960;28;20048;-73
2023/09/22 01:55:19;;;;;;;22.40;15.48;;;14.00;99.90;;;;;;5072309;28;20083;-73
2023/09/22 01:57:51;;;;;;;22.83;15.70;;;14.10;99.90;;;;;;5070460;28;20050;-74
2023/09/22 02:00:18;;;;;;;22.45;16.30;;;14.30;99.90;;;;;;5072342;28;20044;-74
2023/09/22 02:02:47;;;;;;;21.27;15.57;;;14.10;99.90;;;;;;5072395;28;20041;-75
2023/09/22 02:05:14;;;;;;;19.77;15.68;;;14.10;99.90;;;;;;5072555;28;20048;-74
2023/09/22 02:07:41;;;;;;;23.67;16.83;;;14.20;99.90;;;;;;5072185;28;20124;-74
2023/09/22 02:10:09;;;;;;;21.73;17.13;;;14.30;99.90;;;;;;5072578;28;20106;-74
2023/09/22 02:12:36;;;;;;;23.33;16.80;;;14.10;99.90;;;;;;5072193;28;20040;-74
2023/09/22 02:15:02;;;;;;;23.40;17.80;;;14.10;99.90;;;;;;5071999;28;20507;-72
2023/09/22 02:17:28;;;;;;;24.40;18.15;;;14.20;99.90;;;;;;5071011;28;20411;-73
2023/09/22 02:19:55;;;;;;;26.17;18.75;;;14.20;99.90;;;;;;5071902;28;20048;-74
2023/09/22 02:22:20;;;;;;;23.33;18.55;;;14.10;99.90;;;;;;5063723;28;20040;-74
2023/09/22 02:24:46;;;;;;;27.92;18.95;;;14.10;99.90;;;;;;5070412;28;20056;-74
2023/09/22 02:27:12;;;;;;;27.42;18.35;;;14.10;99.90;;;;;;5072099;28;20059;-75
2023/09/22 02:29:38;;;;;;;26.17;18.20;;;14.10;99.90;;;;;;5071721;28;20119;-74
2023/09/22 02:32:04;;;;;;;24.80;17.55;;;14.40;99.90;;;;;;5072068;28;20036;-74
2023/09/22 02:34:29;;;;;;;25.83;18.85;;;14.10;99.90;;;;;;5071898;28;20098;-75
2023/09/22 02:36:55;;;;;;;27.38;19.27;;;14.10;99.90;;;;;;5071903;28;20041;-73
2023/09/22 02:39:21;;;;;;;24.42;18.73;;;14.30;99.90;;;;;;5071586;28;20063;-74
2023/09/22 02:41:47;;;;;;;28.55;20.08;;;14.10;99.90;;;;;;5071759;28;20055;-74
2023/09/22 02:44:13;;;;;;;27.85;19.10;;;14.10;99.90;;;;;;5071389;28;20052;-74
2023/09/22 02:46:39;;;;;;;24.55;18.77;;;14.00;99.90;;;;;;5071471;28;20105;-74
2023/09/22 02:49:05;;;;;;;25.90;20.35;;;14.10;99.90;;;;;;5071616;28;20127;-72
2023/09/22 02:51:30;;;;;;;28.17;20.70;;;14.00;99.90;;;;;;5070388;28;20111;-73
2023/09/22 02:53:56;;;;;;;29.80;19.35;;;14.00;99.90;;;;;;5070943;28;20101;-75
2023/09/22 02:56:22;;;;;;;25.73;19.35;;;14.50;99.90;;;;;;5071203;28;20041;-74
2023/09/22 02:58:48;;;;;;;26.95;18.80;;;14.00;99.90;;;;;;5069369;28;20397;-71
2023/09/22 03:01:14;;;;;;;25.58;19.60;;;13.90;99.90;;;;;;5068903;28;20785;-74
2023/09/22 03:03:43;;;;;;;25.00;18.10;;;13.90;99.90;;;;;;5071062;28;20051;-74
2023/09/22 03:06:12;;;;;;;21.85;17.10;;;14.40;99.90;;;;;;5061849;28;20135;-73
2023/09/22 03:08:39;;;;;;;22.55;16.75;;;14.00;99.90;;;;;;5070998;28;20080;-74
2023/09/22 03:11:05;;;;;;;22.00;17.08;;;13.80;99.90;;;;;;5070839;28;20052;-72
2023/09/22 03:13:31;;;;;;;24.73;16.90;;;13.80;99.90;;;;;;5070975;28;20065;-72
2023/09/22 03:15:57;;;;;;;20.02;15.30;;;13.70;99.90;;;;;;5070350;28;20116;-75
2023/09/22 03:18:24;;;;;;;21.77;16.00;;;13.90;99.90;;;;;;5070578;28;20127;-74
2023/09/22 03:20:50;;;;;;;20.48;16.23;;;13.70;99.90;;;;;;5070382;28;20123;-74
2023/09/22 03:23:16;;;;;;;24.02;15.82;;;13.60;99.90;;;;;;5070505;28;20075;-75
2023/09/22 03:25:44;;;;;;;25.08;15.60;;;13.60;99.90;;;;;;5070752;28;20045;-75
2023/09/22 03:28:10;;;;;;;20.33;15.63;;;14.10;99.90;;;;;;5069914;28;20036;-74
2023/09/22 03:30:36;;;;;;;19.60;15.68;;;13.60;99.90;;;;;;5070621;28;20047;-75
2023/09/22 03:33:02;;;;;;;21.58;16.20;;;13.60;99.90;;;;;;5070728;28;20044;-75
2023/09/22 03:35:27;;;;;;;23.50;16.17;;;13.50;99.90;;;;;;5070852;28;20048;-74
2023/09/22 03:37:55;;;;;;;24.50;15.43;;;13.40;99.90;;;;;;5070646;28;20748;-74
2023/09/22 03:40:31;;;;;;;20.02;15.00;;;13.50;99.90;;;;;;5070226;28;20638;-74
2023/09/22 03:42:58;;;;;;;21.88;15.13;;;13.40;99.90;;;;;;5068433;28;20143;-74
2023/09/22 03:45:23;;;;;;;21.38;15.55;;;13.80;99.90;;;;;;5070014;28;20053;-74
2023/09/22 03:47:49;;;;;;;18.95;14.25;;;13.60;99.90;;;;;;5070134;28;20047;-74
2023/09/22 03:50:15;;;;;;;18.60;14.40;;;13.40;99.90;;;;;;5070045;28;20040;-74
2023/09/22 03:52:42;;;;;;;20.58;14.27;;;13.80;99.90;;;;;;5070098;28;20059;-74
2023/09/22 03:55:13;;;;;;;20.20;14.68;;;13.20;99.90;;;;;;5068597;28;20047;-74
2023/09/22 03:57:39;;;;;;;20.88;14.77;;;13.30;99.90;;;;;;5068647;28;20044;-74
2023/09/22 04:00:17;;;;;;;20.00;14.63;;;13.20;99.90;;;;;;5070192;28;20507;-75
2023/09/22 04:02:44;;;;;;;17.45;13.10;;;13.20;99.90;;;;;;5069788;28;20044;-73
2023/09/22 04:05:11;;;;;;;22.65;13.93;;;13.80;99.90;;;;;;5069602;28;20052;-74
2023/09/22 04:07:37;;;;;;;22.98;14.07;;;13.20;99.90;;;;;;5069691;28;20423;-74
2023/09/22 04:10:03;;;;;;;21.10;13.88;;;13.40;99.90;;;;;;5070079;28;20127;-75
2023/09/22 04:12:29;;;;;;;22.38;14.05;;;13.20;99.90;;;;;;5069457;28;20120;-74
2023/09/22 04:14:56;;;;;;;20.50;14.10;;;13.40;99.90;;;;;;5069398;28;20044;-74
2023/09/22 04:17:21;;;;;;;19.45;13.60;;;13.20;99.90;;;;;;5069670;28;20045;-74
2023/09/22 04:19:49;;;;;;;20.88;13.68;;;13.60;99.90;;;;;;5070116;28;20127;-73
2023/09/22 04:22:16;;;;;;;21.95;13.90;;;13.50;99.90;;;;;;5067740;28;20505;-74
2023/09/22 04:24:47;;;;;;;24.15;14.77;;;13.30;99.90;;;;;;5069808;28;20084;-75
2023/09/22 04:27:14;;;;;;;22.85;14.43;;;13.30;99.90;;;;;;5069444;28;20139;-73
2023/09/22 04:29:40;;;;;;;22.30;14.32;;;13.60;99.90;;;;;;5068163;28;20045;-74
2023/09/22 04:32:05;;;;;;;26.42;15.65;;;13.50;99.90;;;;;;5069593;28;20105;-74
2023/09/22 04:34:32;;;;;;;24.10;15.50;;;13.40;99.90;;;;;;5069497;28;20461;-74
2023/09/22 04:36:58;;;;;;;30.27;16.38;;;13.50;99.90;;;;;;5068143;28;20052;-75
2023/09/22 04:39:24;;;;;;;30.65;16.98;;;13.60;99.90;;;;;;5069435;28;20052;-74
2023/09/22 04:41:50;;;;;;;28.52;16.30;;;13.40;99.90;;;;;;5069097;28;20057;-73
2023/09/22 04:44:16;;;;;;;31.40;16.92;;;13.40;99.90;;;;;;5069371;28;20049;-77
2023/09/22 04:46:42;;;;;;;31.17;18.20;;;13.40;99.90;;;;;;5067632;28;20057;-74
2023/09/22 04:49:10;;;;;;;25.52;16.77;;;13.50;99.90;;;;;;5069858;28;20395;-76
2023/09/22 04:51:36;;;;;;;30.60;18.08;;;13.80;99.90;;;;;;5067975;28;20048;-76
2023/09/22 04:54:02;;;;;;;37.33;18.88;;;13.40;99.90;;;;;;5069607;28;20041;-75
2023/09/22 04:56:28;;;;;;;30.98;19.70;;;13.50;99.90;;;;;;5069684;28;20060;-74
2023/09/22 04:58:56;;;;;;;31.05;19.83;;;13.50;99.90;;;;;;5068998;28;20044;-76
2023/09/22 05:01:24;;;;;;;34.00;19.80;;;13.50;99.90;;;;;;5051425;28;20578;-78
2023/09/22 05:03:50;;;;;;;31.08;19.10;;;13.60;99.90;;;;;;5069203;28;20048;-75
2023/09/22 05:06:16;;;;;;;30.40;19.20;;;13.50;99.90;;;;;;5068114;28;20048;-74
2023/09/22 05:08:42;;;;;;;30.50;18.33;;;13.50;99.90;;;;;;5066333;28;20482;-74
2023/09/22 05:11:08;;;;;;;28.48;18.05;;;13.80;99.90;;;;;;5067860;28;20048;-75
2023/09/22 05:13:35;;;;;;;28.63;19.33;;;13.40;99.90;;;;;;5067677;28;20043;-72
2023/09/22 05:16:06;;;;;;;28.58;19.05;;;13.40;99.90;;;;;;5069626;28;20479;-75
2023/09/22 05:18:31;;;;;;;29.52;18.90;;;13.30;99.90;;;;;;5072227;28;20044;-76
2023/09/22 05:21:00;;;;;;;31.92;19.25;;;13.30;99.90;;;;;;5073023;28;20044;-74
2023/09/22 05:23:27;;;;;;;31.80;19.35;;;13.80;99.90;;;;;;5073294;28;20040;-74
2023/09/22 05:25:53;;;;;;;31.35;19.38;;;13.20;99.90;;;;;;5073065;28;20123;-75
2023/09/22 05:28:18;;;;;;;31.90;19.70;;;13.20;99.90;;;;;;5071581;28;20144;-73
2023/09/22 05:30:45;;;;;;;31.55;20.83;;;13.20;99.90;;;;;;5072794;28;20055;-72
2023/09/22 05:33:10;;;;;;;32.13;20.52;;;13.20;99.90;;;;;;5071362;28;20076;-76
2023/09/22 05:35:36;;;;;;;30.92;19.63;;;13.10;99.90;;;;;;5071295;28;20403;-75
2023/09/22 05:38:05;;;;;;;29.40;19.70;;;13.60;99.90;;;;;;5072618;28;20032;-74
2023/09/22 05:40:34;;;;;;;29.75;20.58;;;13.10;99.90;;;;;;5072436;28;20051;-75
2023/09/22 05:43:05;;;;;;;28.00;19.48;;;13.50;99.90;;;;;;5072423;28;20149;-74
2023/09/22 05:45:31;;;;;;;33.78;20.42;;;13.10;99.90;;;;;;5072595;28;20514;-75
2023/09/22 05:47:57;;;;;;;32.97;20.45;;;13.10;99.90;;;;;;5072616;28;20123;-74
2023/09/22 05:50:25;;;;;;;36.08;21.45;;;13.30;99.90;;;;;;5071270;28;20501;-74
2023/09/22 05:52:51;;;;;;;34.17;20.98;;;13.00;99.90;;;;;;5072615;28;20040;-74
2023/09/22 05:55:18;;;;;;;34.13;20.77;;;13.20;99.90;;;;;;5072104;28;20380;-73
2023/09/22 05:57:43;;;;;;;34.97;21.80;;;13.60;99.90;;;;;;5072761;28;20120;-75
2023/09/22 06:00:17;;;;;;;40.17;22.50;;;13.10;99.90;;;;;;5072439;28;20128;-74
2023/09/22 06:02:50;;;;;;;34.78;23.02;;;13.10;99.90;;;;;;5070763;28;20111;-75
2023/09/22 06:05:22;;;;;;;40.70;24.45;;;13.00;99.90;;;;;;5072001;28;20113;-75
2023/09/22 06:07:54;;;;;;;36.33;22.60;;;13.50;99.90;;;;;;5062407;28;20052;-72
2023/09/22 06:10:20;;;;;;;36.25;22.30;;;13.00;99.90;;;;;;5071121;28;20056;-75
2023/09/22 06:12:46;;;;;;;34.67;21.50;;;13.10;99.90;;;;;;5071995;28;20505;-74
2023/09/22 06:15:15;;;;;;;39.03;22.77;;;13.10;99.90;;;;;;5071966;28;20036;-74
2023/09/22 06:17:41;;;;;;;41.50;22.67;;;13.10;99.90;;;;;;5071755;28;20059;-74
2023/09/22 06:20:15;;;;;;;34.30;22.15;;;13.10;99.90;;;;;;5072172;28;20040;-75
2023/09/22 06:22:47;;;;;;;37.45;22.55;;;13.10;99.90;;;;;;5072134;28;20052;-74
2023/09/22 06:25:13;;;;;;;37.42;22.67;;;13.70;99.90;;;;;;5071977;28;20048;-74
2023/09/22 06:27:40;;;;;;;38.70;22.20;;;13.10;99.90;;;;;;5071721;28;20056;-76
2023/09/22 06:30:10;;;;;;;33.97;22.27;;;13.10;99.90;;;;;;5071955;28;20178;-75
2023/09/22 06:32:40;;;;;;;32.95;21.88;;;13.10;99.90;;;;;;5070498;28;20520;-76
2023/09/22 06:35:08;;;;;;;40.60;22.98;;;13.20;99.90;;;;;;5071779;28;20052;-72
2023/09/22 06:37:34;;;;;;;37.95;22.52;;;13.00;99.90;;;;;;5071454;28;20502;-72
2023/09/22 06:40:00;;;;;;;34.03;21.80;;;13.20;99.90;;;;;;5071510;28;20051;-73
2023/09/22 06:42:26;;;;;;;35.70;20.50;;;13.10;99.90;;;;;;5071524;28;20048;-75
2023/09/22 06:44:51;;;;;;;35.22;22.05;;;13.40;99.90;;;;;;5071740;28;20048;-74
2023/09/22 06:47:17;;;;;;;36.33;21.33;;;13.10;99.90;;;;;;5070870;28;20080;-72
2023/09/22 06:49:43;;;;;;;36.47;20.92;;;13.10;99.90;;;;;;5071635;28;20036;-72
2023/09/22 06:52:08;;;;;;;34.35;20.35;;;13.30;99.90;;;;;;5069871;28;20048;-72
2023/09/22 06:54:34;;;;;;;38.88;21.20;;;13.10;99.90;;;;;;5071521;28;20441;-73
2023/09/22 06:57:01;;;;;;;35.78;21.13;;;13.20;99.90;;;;;;5070067;28;20040;-75
2023/09/22 06:59:27;;;;;;;29.60;18.83;;;13.50;99.90;;;;;;5071204;28;20052;-73
2023/09/22 07:01:54;;;;;;;36.28;19.55;;;13.20;99.90;;;;;;5071154;28;20098;-72
2023/09/22 07:04:21;;;;;;;30.23;17.98;;;13.20;99.90;;;;;;5071161;28;20050;-72
2023/09/22 07:06:46;;;;;;;31.17;18.63;;;13.30;99.90;;;;;;5069986;28;20044;-77
2023/09/22 07:09:13;;;;;;;34.05;18.30;;;13.30;99.90;;;;;;5069480;28;20048;-73
2023/09/22 07:11:42;;;;;;;34.20;18.42;;;13.40;99.90;;;;;;5070981;28;20499;-74
2023/09/22 07:14:08;;;;;;;31.70;17.77;;;13.30;99.90;;;;;;5071164;28;20040;-76
2023/09/22 07:16:34;;;;;;;24.20;16.67;;;13.40;99.90;;;;;;5070606;28;20036;-74
2023/09/22 07:19:00;;;;;;;26.35;16.27;;;13.80;99.90;;;;;;5070018;28;20097;-74
2023/09/22 07:21:26;;;;;;;25.90;16.60;;;13.40;99.90;;;;;;5070408;28;20093;-73
2023/09/22 07:23:54;;;;;;;24.30;15.85;;;13.40;99.90;;;;;;5070937;28;20048;-74
2023/09/22 07:26:20;;;;;;;28.92;16.98;;;13.40;99.90;;;;;;5069406;28;20048;-74
2023/09/22 07:28:46;;;;;;;26.13;15.57;;;13.40;99.90;;;;;;5070047;28;20052;-74
2023/09/22 07:31:20;;;;;;;27.23;16.40;;;13.50;99.90;;;;;;5070772;28;20051;-72
2023/09/22 07:33:46;;;;;;;25.20;16.10;;;13.50;99.90;;;;;;5070348;28;20182;-71
2023/09/22 07:36:13;;;;;;;27.55;16.48;;;13.50;99.90;;;;;;5070132;28;20041;-73
2023/09/22 07:38:38;;;;;;;25.65;15.07;;;13.50;99.90;;;;;;5070238;28;20094;-76
2023/09/22 07:41:05;;;;;;;34.00;15.85;;;14.20;99.90;;;;;;5069343;28;20426;-72
2023/09/22 07:43:30;;;;;;;27.75;16.20;;;13.50;99.90;;;;;;5069056;28;20048;-75
2023/09/22 07:46:03;;;;;;;22.13;14.52;;;13.60;99.90;;;;;;5070414;28;20471;-77
2023/09/22 07:48:29;;;;;;;24.77;14.85;;;13.60;99.90;;;;;;5067518;28;20486;-73
2023/09/22 07:50:54;;;;;;;24.15;14.65;;;13.70;99.90;;;;;;5070712;28;20127;-73
2023/09/22 07:53:20;;;;;;;24.13;14.00;;;13.60;99.90;;;;;;5070221;28;20040;-72
2023/09/22 07:55:47;;;;;;;25.90;13.77;;;13.60;99.90;;;;;;5070411;28;20114;-74
2023/09/22 07:58:13;;;;;;;24.45;13.77;;;13.60;99.90;;;;;;5070430;28;20045;-74
2023/09/22 08:00:43;;;;;;;23.27;12.98;;;13.60;99.90;;;;;;5070111;28;20052;-73
2023/09/22 08:03:09;;;;;;;21.13;13.10;;;13.60;99.90;;;;;;5070582;28;20053;-75
2023/09/22 08:05:35;;;;;;;21.20;13.30;;;13.70;99.90;;;;;;5070243;28;20051;-72
2023/09/22 08:08:01;;;;;;;19.45;13.27;;;13.80;99.90;;;;;;5069989;28;20398;-75
2023/09/22 08:10:29;;;;;;;26.13;13.15;;;14.00;99.90;;;;;;5069936;28;20036;-74
2023/09/22 08:12:55;;;;;;;22.20;13.05;;;13.90;99.90;;;;;;5069973;28;20584;-74
2023/09/22 08:15:21;;;;;;;23.20;12.55;;;13.90;99.90;;;;;;5069947;28;20044;-72
2023/09/22 08:17:48;;;;;;;22.73;13.02;;;14.00;99.90;;;;;;5069821;28;20588;-74
2023/09/22 08:20:15;;;;;;;18.48;12.52;;;14.00;99.90;;;;;;5068836;28;20052;-72
2023/09/22 08:22:43;;;;;;;18.77;12.57;;;14.00;99.90;;;;;;5069194;28;20052;-73
2023/09/22 08:25:10;;;;;;;19.77;13.43;;;14.00;99.90;;;;;;5071187;28;20591;-74
2023/09/22 08:27:36;;;;;;;19.17;12.95;;;14.50;99.90;;;;;;5070327;28;20406;-75
2023/09/22 08:30:11;;;;;;;20.98;12.48;;;14.00;99.90;;;;;;5069283;28;20084;-76
2023/09/22 08:32:41;;;;;;;18.80;12.30;;;14.00;99.90;;;;;;5070772;28;20116;-72
2023/09/22 08:35:12;;;;;;;16.35;11.80;;;14.10;99.90;;;;;;5069812;28;20082;-73
2023/09/22 08:37:42;;;;;;;20.55;13.13;;;14.10;99.90;;;;;;5069837;28;20044;-72
2023/09/22 08:40:17;;;;;;;15.77;11.63;;;14.20;99.90;;;;;;5070429;28;20044;-76
2023/09/22 08:42:45;;;;;;;18.23;11.60;;;14.20;99.90;;;;;;5069828;28;20049;-73
2023/09/22 08:45:12;;;;;;;16.63;11.00;;;14.30;99.90;;;;;;5070133;28;20344;-74
2023/09/22 08:47:40;;;;;;;14.55;10.43;;;14.40;99.90;;;;;;5069872;28;20040;-74
2023/09/22 08:50:11;;;;;;;16.88;9.70;;;14.50;99.90;;;;;;5069011;28;20079;-73
2023/09/22 08:52:42;;;;;;;16.77;9.52;;;14.60;99.90;;;;;;5070082;28;20049;-73
2023/09/22 08:55:13;;;;;;;14.27;9.55;;;14.70;99.90;;;;;;5068887;28;20081;-74
2023/09/22 08:57:47;;;;;;;16.50;8.98;;;14.80;99.90;;;;;;5066504;28;20052;-75
2023/09/22 09:00:26;;;;;;;14.45;7.88;;;14.80;99.90;;;;;;5070201;28;20068;-73
2023/09/22 09:02:55;;;;;;;12.88;7.90;;;14.90;99.90;;;;;;5062162;28;20057;-74
2023/09/22 09:05:27;;;;;;;11.73;6.97;;;14.90;99.90;;;;;;5068914;28;20045;-72
2023/09/22 09:07:53;;;;;;;13.55;7.25;;;14.90;99.90;;;;;;5067850;28;20495;-72
2023/09/22 09:10:25;;;;;;;10.75;7.35;;;15.50;99.90;;;;;;5069283;28;20047;-72
2023/09/22 09:12:50;;;;;;;12.18;6.30;;;15.00;99.90;;;;;;5061108;28;20480;-75
2023/09/22 09:15:16;;;;;;;8.25;5.53;;;15.20;99.90;;;;;;5068191;28;20056;-78
2023/09/22 09:17:42;;;;;;;11.98;5.18;;;15.40;99.90;;;;;;5069255;28;20515;-73
2023/09/22 09:20:08;;;;;;;8.07;4.72;;;16.30;99.90;;;;;;5067803;28;20574;-77
2023/09/22 09:22:37;;;;;;;8.10;4.20;;;16.00;99.90;;;;;;5067808;28;20139;-74
2023/09/22 09:25:03;;;;;;;6.97;3.53;;;16.30;99.90;;;;;;5061163;28;20049;-77
2023/09/22 09:27:29;;;;;;;6.63;3.58;;;16.40;99.90;;;;;;5069539;28;20087;-77
2023/09/22 09:29:55;;;;;;;10.18;3.70;;;17.00;99.90;;;;;;5069114;28;20076;-74
2023/09/22 09:32:24;;;;;;;12.10;3.10;;;16.70;99.90;;;;;;5067833;28;20040;-74
2023/09/22 09:34:51;;;;;;;6.82;3.13;;;17.00;99.90;;;;;;5068949;28;20052;-74
2023/09/22 09:37:17;;;;;;;6.85;2.40;;;17.00;99.90;;;;;;5069031;28;20037;-74
2023/09/22 09:39:49;;;;;;;4.93;2.42;;;17.10;99.90;;;;;;5068851;28;20116;-75
2023/09/22 09:42:17;;;;;;;5.18;2.00;;;17.40;99.90;;;;;;5073931;28;20085;-76
2023/09/22 09:44:54;;;;;;;5.97;1.67;;;17.50;99.90;;;;;;5068915;28;20113;-75
2023/09/22 09:47:27;;;;;;;4.88;2.00;;;17.60;99.90;;;;;;5068890;28;20040;-75
2023/09/22 09:49:58;;;;;;;4.45;2.17;;;17.50;99.90;;;;;;5068673;28;20040;-76
2023/09/22 09:52:42;;;;;;;6.00;2.53;;;17.30;99.90;;;;;;5068793;28;20123;-74
2023/09/22 09:55:12;;;;;;;4.28;2.10;;;17.40;99.90;;;;;;5068407;28;20048;-73
2023/09/22 09:57:45;;;;;;;5.82;1.92;;;17.30;99.90;;;;;;5069215;28;20072;-73
2023/09/22 10:00:20;;;;;;;5.38;1.70;;;17.30;99.90;;;;;;5069039;28;20372;-73
2023/09/22 10:02:47;;;;;;;6.97;1.90;;;17.20;99.90;;;;;;5064365;28;20114;-76
2023/09/22 10:05:17;;;;;;;6.40;1.80;;;17.20;99.90;;;;;;5070781;28;20123;-74
2023/09/22 10:07:44;;;;;;;9.77;2.15;;;17.20;99.90;;;;;;5072301;28;20759;-74
2023/09/22 10:10:11;;;;;;;2.97;1.40;;;17.10;99.90;;;;;;5072361;28;20040;-74
2023/09/22 10:12:38;;;;;;;6.75;1.45;;;17.10;99.90;;;;;;5072310;28;20044;-75
2023/09/22 10:15:04;;;;;;;3.65;1.48;;;16.90;99.90;;;;;;5071775;28;20113;-78
2023/09/22 10:17:31;;;;;;;2.83;1.40;;;16.70;99.90;;;;;;5071912;28;20048;-75
2023/09/22 10:20:11;;;;;;;3.53;1.20;;;16.60;99.90;;;;;;5071095;28;20041;-74
2023/09/22 10:22:38;;;;;;;4.45;1.30;;;16.40;99.90;;;;;;5070580;28;20063;-75
2023/09/22 10:25:12;;;;;;;3.60;1.33;;;16.40;99.90;;;;;;5071183;28;20098;-74
2023/09/22 10:27:57;;;;;;;;;;;16.60;99.90;;;;;;5073109;28;20047;-76
2023/09/22 10:30:44;;;;;;;3.78;1.30;;;16.70;99.90;;;;;;5065352;28;19928;-76
2023/09/22 10:33:16;;;;;;;2.92;1.02;;;16.70;99.90;;;;;;5068094;28;20040;-73
2023/09/22 10:35:42;;;;;;;2.40;1.10;;;16.80;99.90;;;;;;5071857;28;20036;-75
2023/09/22 10:38:10;;;;;;;4.55;1.05;;;16.80;99.90;;;;;;5072031;28;20040;-75
2023/09/22 10:40:58;;;;;;;3.70;1.30;;;16.70;99.90;;;;;;5072134;28;20044;-74
2023/09/22 10:43:25;;;;;;;4.10;1.60;;;16.60;99.90;;;;;;5069024;28;20052;-72
2023/09/22 10:45:52;;;;;;;3.85;1.50;;;16.60;99.90;;;;;;5072347;28;20053;-75
2023/09/22 10:48:18;;;;;;;4.22;1.52;;;16.60;99.90;;;;;;5070246;28;20511;-75
2023/09/22 10:50:49;;;;;;;3.00;1.30;;;16.60;99.90;;;;;;5071858;28;20062;-75
2023/09/22 10:53:15;;;;;;;2.78;1.40;;;16.50;99.90;;;;;;5071528;28;20128;-75
2023/09/22 10:55:42;;;;;;;4.43;1.58;;;16.40;99.90;;;;;;5071704;28;20128;-74
2023/09/22 10:58:14;;;;;;;3.40;1.30;;;16.60;99.90;;;;;;5069697;28;20102;-76
2023/09/22 11:00:53;;;;;;;3.10;1.50;;;16.80;99.90;;;;;;5066840;28;20143;-76
2023/09/22 11:03:19;;;;;;;13.75;2.28;;;17.00;99.90;;;;;;5070790;28;20507;-74
2023/09/22 11:05:55;;;;;;;3.72;1.35;;;17.10;99.90;;;;;;5071316;28;20050;-74
2023/09/22 11:08:20;;;;;;;3.67;1.20;;;17.30;99.90;;;;;;5071428;28;20082;-75
2023/09/22 11:10:51;;;;;;;3.95;1.67;;;17.40;99.90;;;;;;5069694;28;20048;-75
2023/09/22 11:13:17;;;;;;;2.03;1.45;;;17.40;99.90;;;;;;5068739;28;20040;-76
2023/09/22 11:15:57;;;;;;;2.35;1.20;;;17.60;99.90;;;;;;5070624;28;20098;-75
2023/09/22 11:18:24;;;;;;;3.58;1.30;;;17.50;99.90;;;;;;5070938;28;20040;-75
2023/09/22 11:21:05;;;;;;;7.80;2.05;;;17.70;99.90;;;;;;5070647;28;20098;-78
2023/09/22 11:23:32;;;;;;;2.30;1.50;;;17.50;99.90;;;;;;5071094;28;20048;-74
2023/09/22 11:26:00;;;;;;;4.30;1.70;;;17.50;99.90;;;;;;5069930;28;20040;-75
2023/09/22 11:28:26;;;;;;;6.30;1.48;;;17.50;99.90;;;;;;5069399;28;20056;-75
2023/09/22 11:30:53;;;;;;;3.17;1.52;;;17.40;99.90;;;;;;5069158;28;20075;-73
2023/09/22 11:33:19;;;;;;;5.05;1.38;;;17.50;99.90;;;;;;5070931;28;20080;-74
2023/09/22 11:35:45;;;;;;;8.45;1.98;;;17.70;99.90;;;;;;5070955;28;20482;-79
2023/09/22 11:38:24;;;;;;;3.25;1.33;;;18.00;99.90;;;;;;5070442;28;20052;-75
2023/09/22 11:41:04;;;;;;;5.70;1.40;;;17.90;99.90;;;;;;5069185;28;20050;-76
2023/09/22 11:43:30;;;;;;;2.47;1.10;;;17.90;99.90;;;;;;5063324;28;20075;-74
2023/09/22 11:46:08;;;;;;;5.70;1.30;;;18.00;99.90;;;;;;5070310;28;20051;-76
2023/09/22 11:48:52;;;;;;;3.13;1.25;;;18.00;99.90;;;;;;5063659;28;20490;-76
2023/09/22 11:51:19;;;;;;;2.17;1.30;;;17.90;99.90;;;;;;5070217;28;20055;-74
2023/09/22 11:53:46;;;;;;;4.03;1.48;;;17.90;99.90;;;;;;5070144;28;20051;-74
2023/09/22 11:56:11;;;;;;;2.20;1.20;;;17.80;99.90;;;;;;5070087;28;20062;-78
2023/09/22 11:58:38;;;;;;;4.60;1.40;;;17.70;99.90;;;;;;5070228;28;20044;-76
2023/09/22 12:01:05;;;;;;;2.90;1.42;;;17.60;99.90;;;;;;5069923;28;20067;-75
2023/09/22 12:03:34;;;;;;;2.05;1.23;;;17.60;99.90;;;;;;5070079;28;20449;-76
2023/09/22 12:06:00;;;;;;;3.83;1.52;;;17.40;99.90;;;;;;5067777;28;20187;-78
2023/09/22 12:08:25;;;;;;;2.22;1.40;;;17.40;99.90;;;;;;5068665;28;20040;-74
2023/09/22 12:10:51;;;;;;;2.60;1.38;;;17.40;99.90;;;;;;5068478;28;20513;-75
2023/09/22 12:13:17;;;;;;;2.55;1.40;;;17.60;99.90;;;;;;5069766;28;20094;-78
2023/09/22 12:15:42;;;;;;;3.67;1.20;;;17.90;99.90;;;;;;5068924;28;20131;-76
2023/09/22 12:18:08;;;;;;;3.03;1.23;;;18.00;99.90;;;;;;5070205;28;20561;-74
2023/09/22 12:20:35;;;;;;;2.45;1.15;;;18.00;99.90;;;;;;5069964;28;20040;-76
2023/09/22 12:23:01;;;;;;;4.95;1.30;;;18.00;99.90;;;;;;5069743;28;20116;-75
2023/09/22 12:25:27;;;;;;;4.05;1.20;;;17.90;99.90;;;;;;5069487;28;20170;-76
2023/09/22 12:27:52;;;;;;;2.97;1.10;;;17.80;99.90;;;;;;5069864;28;20047;-81
2023/09/22 12:30:18;;;;;;;2.90;1.13;;;17.80;99.90;;;;;;5069577;28;20200;-77
2023/09/22 12:32:44;;;;;;;3.20;2.15;;;17.80;99.90;;;;;;5069589;28;20056;-86
2023/09/22 12:35:09;;;;;;;3.15;1.20;;;17.70;99.90;;;;;;5068271;28;20052;-78